Time;durP1;ratioP1;P1;durP2;ratioP2;P2;SDS_P1;SDS_P2;PMS_P1;PMS_P2;Temp;Humidity;BMP_temperature;BMP_pressure;BME280_temperature;BME280_humidity;BME280_pressure;Samples;Min_cycle;Max_cycle;Signal;HPM_P1;HPM_P2
2022/12/08 00:01:20;;;;;;;6.88;1.92;;;;;;;;;;5054060;28;20037;-64
2022/12/08 00:03:47;;;;;;;6.80;1.80;;;;;;;;;;5053915;28;20072;-64
2022/12/08 00:11:45;;;;;;;6.30;1.50;;;;;;;;;;5053584;28;20045;-64
2022/12/08 00:14:11;;;;;;;6.47;2.30;;;;;;;;;;5053877;28;20044;-64
2022/12/08 00:16:37;;;;;;;5.50;1.60;;;;;;;;;;5053898;28;20036;-64
2022/12/08 00:19:03;;;;;;;7.47;1.45;;;;;;;;;;5052927;28;20088;-64
2022/12/08 00:21:29;;;;;;;8.05;1.45;;;;;;;;;;5053889;28;20052;-64
2022/12/08 00:23:56;;;;;;;23.55;6.93;;;;;;;;;;5053823;28;20044;-64
2022/12/08 00:26:22;;;;;;;16.10;4.38;;;;;;;;;;5053285;28;20055;-64
2022/12/08 00:28:48;;;;;;;23.17;6.57;;;;;;;;;;5053695;28;20051;-64
2022/12/08 00:31:14;;;;;;;7.75;2.35;;;;;;;;;;5053595;28;20037;-64
2022/12/08 00:33:40;;;;;;;14.60;5.15;;;;;;;;;;5053140;28;20380;-64
2022/12/08 00:36:10;;;;;;;10.20;2.20;;;;;;;;;;5053291;28;20045;-64
2022/12/08 00:38:37;;;;;;;7.57;1.52;;;;;;;;;;5052808;28;20036;-64
2022/12/08 00:41:06;;;;;;;8.80;1.70;;;;;;;;;;5051701;28;20380;-64
2022/12/08 00:43:32;;;;;;;5.25;1.50;;;;;;;;;;5053211;28;20395;-64
2022/12/08 00:45:58;;;;;;;3.72;1.30;;;;;;;;;;5053264;28;20039;-63
2022/12/08 00:48:24;;;;;;;9.05;2.00;;;;;;;;;;5052718;28;20032;-64
2022/12/08 00:50:50;;;;;;;4.32;1.30;;;;;;;;;;5053143;28;20048;-64
2022/12/08 00:53:16;;;;;;;7.63;1.40;;;;;;;;;;5053225;28;20041;-63
2022/12/08 00:55:42;;;;;;;5.40;1.70;;;;;;;;;;5051450;28;20037;-64
2022/12/08 00:58:08;;;;;;;5.55;1.45;;;;;;;;;;5053136;28;20598;-64
2022/12/08 01:00:34;;;;;;;10.55;1.98;;;;;;;;;;5052876;28;20029;-64
2022/12/08 01:03:01;;;;;;;8.85;1.92;;;;;;;;;;5052685;28;20121;-64
2022/12/08 01:05:27;;;;;;;9.50;1.13;;;;;;;;;;5053007;28;20076;-64
2022/12/08 01:07:53;;;;;;;6.93;1.17;;;;;;;;;;5053070;28;20793;-64
2022/12/08 01:10:19;;;;;;;3.13;1.15;;;;;;;;;;5052481;28;20172;-64
2022/12/08 01:12:45;;;;;;;6.13;1.30;;;;;;;;;;5052465;28;20051;-64
2022/12/08 01:15:11;;;;;;;4.57;1.92;;;;;;;;;;5052727;28;20045;-64
2022/12/08 01:17:37;;;;;;;3.80;1.65;;;;;;;;;;5051973;28;20092;-64
2022/12/08 01:20:04;;;;;;;6.75;1.30;;;;;;;;;;5052574;28;20514;-64
2022/12/08 01:22:30;;;;;;;6.13;1.33;;;;;;;;;;5052616;28;20565;-64
2022/12/08 01:24:56;;;;;;;3.25;1.00;;;;;;;;;;5052401;28;20095;-63
2022/12/08 01:27:22;;;;;;;3.90;1.42;;;;;;;;;;5052680;28;20045;-64
2022/12/08 01:29:48;;;;;;;6.43;1.23;;;;;;;;;;5051291;28;20037;-64
2022/12/08 01:32:14;;;;;;;7.03;1.52;;;;;;;;;;5052206;28;20138;-64
2022/12/08 01:34:40;;;;;;;4.97;1.10;;;;;;;;;;5052249;28;20041;-64
2022/12/08 01:37:06;;;;;;;7.07;1.48;;;;;;;;;;5052402;28;20040;-64
2022/12/08 01:39:32;;;;;;;9.30;1.65;;;;;;;;;;5052384;28;20040;-64
2022/12/08 01:41:58;;;;;;;4.00;1.30;;;;;;;;;;5051941;28;20033;-64
2022/12/08 01:44:24;;;;;;;2.80;1.45;;;;;;;;;;5052327;28;20039;-64
2022/12/08 01:46:51;;;;;;;3.03;1.20;;;;;;;;;;5052029;28;20037;-64
2022/12/08 01:49:20;;;;;;;5.20;1.23;;;;;;;;;;5050782;28;20411;-64
2022/12/08 01:51:48;;;;;;;5.60;1.73;;;;;;;;;;5052160;28;20045;-64
2022/12/08 01:54:15;;;;;;;2.10;1.20;;;;;;;;;;5052087;28;20076;-64
2022/12/08 01:56:43;;;;;;;8.65;1.65;;;;;;;;;;5051657;28;20067;-64
2022/12/08 01:59:10;;;;;;;6.07;1.50;;;;;;;;;;5051919;28;20036;-64
2022/12/08 02:01:37;;;;;;;8.40;2.00;;;;;;;;;;5051929;28;20080;-64
2022/12/08 02:04:04;;;;;;;6.53;1.35;;;;;;;;;;5051668;28;20052;-63
2022/12/08 02:06:32;;;;;;;6.90;1.40;;;;;;;;;;5051708;28;20037;-63
2022/12/08 02:08:59;;;;;;;5.50;1.90;;;;;;;;;;5051601;28;20075;-63
2022/12/08 02:11:24;;;;;;;6.97;1.92;;;;;;;;;;5051284;28;20076;-63
2022/12/08 02:13:52;;;;;;;5.90;2.30;;;;;;;;;;5051348;28;20497;-63
2022/12/08 02:16:53;;;;;;;4.32;1.48;;;;;;;;;;5051334;28;20079;-63
2022/12/08 02:19:25;;;;;;;5.45;1.35;;;;;;;;;;5048492;28;20053;-64
2022/12/08 02:22:04;;;;;;;4.80;1.35;;;;;;;;;;5050779;28;20064;-64
2022/12/08 02:24:30;;;;;;;6.93;1.10;;;;;;;;;;5049717;28;20037;-64
2022/12/08 02:27:15;;;;;;;3.17;1.10;;;;;;;;;;5051444;28;20471;-64
2022/12/08 02:29:41;;;;;;;4.90;1.10;;;;;;;;;;5051670;28;20480;-64
2022/12/08 02:32:22;;;;;;;8.73;1.40;;;;;;;;;;5051057;28;20048;-64
2022/12/08 02:35:00;;;;;;;2.47;0.98;;;;;;;;;;5051332;28;20041;-64
2022/12/08 02:37:29;;;;;;;5.10;1.15;;;;;;;;;;5051190;28;20084;-63
2022/12/08 02:40:14;;;;;;;1.10;0.70;;;;;;;;;;5051081;28;20029;-63
2022/12/08 02:42:44;;;;;;;5.93;1.35;;;;;;;;;;5051332;28;20549;-64
2022/12/08 02:45:13;;;;;;;3.63;0.90;;;;;;;;;;5051272;28;20052;-64
2022/12/08 02:47:40;;;;;;;3.20;0.75;;;;;;;;;;5051046;28;20046;-64
2022/12/08 02:50:06;;;;;;;1.85;1.23;;;;;;;;;;5051395;28;20048;-64
2022/12/08 02:52:32;;;;;;;3.72;1.23;;;;;;;;;;5050874;28;20051;-64
2022/12/08 02:55:01;;;;;;;0.98;0.88;;;;;;;;;;5050971;28;20041;-64
2022/12/08 02:57:32;;;;;;;4.20;0.95;;;;;;;;;;5051181;28;20041;-64
2022/12/08 03:00:07;;;;;;;2.80;1.40;;;;;;;;;;5050919;28;20395;-64
2022/12/08 03:02:46;;;;;;;3.53;1.02;;;;;;;;;;5054876;28;20489;-63
2022/12/08 03:05:27;;;;;;;5.45;1.05;;;;;;;;;;5055294;28;20048;-64
2022/12/08 03:08:00;;;;;;;5.97;1.38;;;;;;;;;;5055305;28;20132;-64
2022/12/08 03:10:28;;;;;;;3.88;1.17;;;;;;;;;;5054839;28;20313;-64
2022/12/08 03:13:02;;;;;;;4.68;1.23;;;;;;;;;;5054916;28;20037;-63
2022/12/08 03:15:29;;;;;;;1.95;0.93;;;;;;;;;;5070128;28;20074;-63
2022/12/08 03:17:57;;;;;;;4.30;0.90;;;;;;;;;;5054369;28;20061;-63
2022/12/08 03:20:24;;;;;;;2.60;1.13;;;;;;;;;;5054489;28;20049;-63
2022/12/08 03:22:52;;;;;;;3.95;1.10;;;;;;;;;;5053140;28;20048;-63
2022/12/08 03:25:20;;;;;;;3.45;1.00;;;;;;;;;;5054322;28;20048;-63
2022/12/08 03:27:46;;;;;;;2.28;0.88;;;;;;;;;;5054906;28;20398;-63
2022/12/08 03:30:12;;;;;;;2.58;0.93;;;;;;;;;;5054775;28;20043;-64
2022/12/08 03:32:54;;;;;;;2.63;0.80;;;;;;;;;;5054284;28;20693;-63
2022/12/08 03:35:23;;;;;;;2.03;0.77;;;;;;;;;;5054533;28;20033;-63
2022/12/08 03:37:49;;;;;;;4.95;0.90;;;;;;;;;;5054576;28;20037;-63
2022/12/08 03:40:17;;;;;;;2.88;1.00;;;;;;;;;;5054159;28;20484;-64
2022/12/08 03:42:43;;;;;;;2.53;0.75;;;;;;;;;;5054655;28;20364;-64
2022/12/08 03:45:09;;;;;;;4.35;0.75;;;;;;;;;;5054432;28;20048;-63
2022/12/08 03:47:35;;;;;;;1.80;0.80;;;;;;;;;;5054085;28;20033;-63
2022/12/08 03:50:01;;;;;;;2.58;0.50;;;;;;;;;;5054438;28;20080;-63
2022/12/08 03:52:27;;;;;;;1.25;0.60;;;;;;;;;;5054327;28;20067;-63
2022/12/08 03:54:53;;;;;;;3.03;0.57;;;;;;;;;;5053931;28;20037;-63
2022/12/08 03:57:20;;;;;;;0.93;0.50;;;;;;;;;;5054216;28;20121;-63
2022/12/08 03:59:46;;;;;;;0.60;0.60;;;;;;;;;;5053842;28;20048;-63
2022/12/08 04:02:12;;;;;;;0.75;0.50;;;;;;;;;;5052618;28;20045;-63
2022/12/08 04:04:38;;;;;;;0.75;0.60;;;;;;;;;;5054323;28;20618;-63
2022/12/08 04:07:04;;;;;;;2.92;0.63;;;;;;;;;;5054062;28;20041;-63
2022/12/08 04:09:30;;;;;;;2.88;0.80;;;;;;;;;;5053614;28;20040;-63
2022/12/08 04:11:56;;;;;;;1.23;0.60;;;;;;;;;;5053040;28;20053;-63
2022/12/08 04:14:22;;;;;;;2.20;0.80;;;;;;;;;;5053642;28;20083;-63
2022/12/08 04:16:48;;;;;;;2.15;0.70;;;;;;;;;;5053505;28;20116;-63
2022/12/08 04:19:14;;;;;;;0.77;0.77;;;;;;;;;;5052428;28;20123;-63
2022/12/08 04:21:40;;;;;;;1.35;0.88;;;;;;;;;;5053713;28;20438;-63
2022/12/08 04:24:07;;;;;;;2.33;0.88;;;;;;;;;;5053353;28;20128;-63
2022/12/08 04:26:32;;;;;;;2.53;0.98;;;;;;;;;;5053749;28;20138;-63
2022/12/08 04:28:58;;;;;;;2.78;0.90;;;;;;;;;;5053830;28;20468;-63
2022/12/08 04:31:25;;;;;;;2.42;1.27;;;;;;;;;;5053174;28;20041;-63
2022/12/08 04:33:51;;;;;;;1.58;0.80;;;;;;;;;;5053621;28;20037;-63
2022/12/08 04:36:17;;;;;;;6.15;1.50;;;;;;;;;;5053539;28;20048;-63
2022/12/08 04:38:43;;;;;;;4.05;1.38;;;;;;;;;;5053269;28;20063;-63
2022/12/08 04:41:09;;;;;;;1.42;1.00;;;;;;;;;;5053055;28;20471;-63
2022/12/08 04:43:36;;;;;;;3.72;1.20;;;;;;;;;;5053535;28;20691;-63
2022/12/08 04:46:05;;;;;;;3.65;1.70;;;;;;;;;;5053246;28;20055;-63
2022/12/08 04:48:31;;;;;;;6.22;1.80;;;;;;;;;;5053506;28;20078;-63
2022/12/08 04:50:57;;;;;;;1.98;1.60;;;;;;;;;;5053364;28;20052;-63
2022/12/08 04:53:25;;;;;;;5.47;1.65;;;;;;;;;;5053061;28;20044;-63
2022/12/08 04:55:51;;;;;;;2.47;1.30;;;;;;;;;;5053431;28;20051;-63
2022/12/08 04:58:18;;;;;;;4.00;1.90;;;;;;;;;;5053065;28;20039;-63
2022/12/08 05:00:45;;;;;;;4.65;1.80;;;;;;;;;;5052386;28;20487;-63
2022/12/08 05:03:11;;;;;;;3.42;1.52;;;;;;;;;;5053094;28;20041;-63
2022/12/08 05:05:37;;;;;;;3.35;1.55;;;;;;;;;;5052902;28;20041;-63
2022/12/08 05:08:04;;;;;;;5.15;1.60;;;;;;;;;;5052627;28;20044;-63
2022/12/08 05:10:30;;;;;;;2.15;1.50;;;;;;;;;;5053208;28;20123;-63
2022/12/08 05:12:57;;;;;;;4.25;1.50;;;;;;;;;;5052651;28;20049;-63
2022/12/08 05:15:23;;;;;;;3.88;1.55;;;;;;;;;;5052485;28;20475;-63
2022/12/08 05:17:49;;;;;;;3.00;1.38;;;;;;;;;;5052687;28;20098;-63
2022/12/08 05:20:15;;;;;;;2.80;1.40;;;;;;;;;;5052417;28;20083;-63
2022/12/08 05:22:42;;;;;;;3.47;1.23;;;;;;;;;;5052426;28;20060;-63
2022/12/08 05:25:08;;;;;;;3.20;1.40;;;;;;;;;;5052499;28;20638;-63
2022/12/08 05:27:34;;;;;;;2.08;1.38;;;;;;;;;;5052450;28;20084;-63
2022/12/08 05:30:00;;;;;;;2.80;1.30;;;;;;;;;;5052264;28;20044;-63
2022/12/08 05:32:27;;;;;;;2.25;1.40;;;;;;;;;;5052453;28;20055;-63
2022/12/08 05:34:53;;;;;;;6.57;1.42;;;;;;;;;;5052202;28;20044;-63
2022/12/08 05:37:19;;;;;;;1.63;1.35;;;;;;;;;;5051901;28;20045;-63
2022/12/08 05:39:45;;;;;;;6.20;1.50;;;;;;;;;;5052338;28;20032;-63
2022/12/08 05:42:11;;;;;;;3.50;1.73;;;;;;;;;;5052164;28;20080;-63
2022/12/08 05:44:37;;;;;;;4.05;1.90;;;;;;;;;;5052316;28;20049;-63
2022/12/08 05:47:03;;;;;;;6.88;2.45;;;;;;;;;;5052692;28;20041;-63
2022/12/08 05:49:29;;;;;;;5.40;1.90;;;;;;;;;;5051740;28;20044;-63
2022/12/08 05:51:55;;;;;;;3.22;1.85;;;;;;;;;;5051483;28;20044;-63
2022/12/08 05:54:21;;;;;;;3.47;1.20;;;;;;;;;;5052334;28;20041;-63
2022/12/08 05:56:48;;;;;;;9.90;4.95;;;;;;;;;;5052221;28;20047;-64
2022/12/08 05:59:15;;;;;;;3.53;2.38;;;;;;;;;;5051858;28;20480;-64
2022/12/08 06:01:41;;;;;;;6.47;2.70;;;;;;;;;;5052070;28;20045;-64
2022/12/08 06:04:08;;;;;;;1.58;1.17;;;;;;;;;;5051808;28;20055;-64
2022/12/08 06:06:34;;;;;;;4.93;1.52;;;;;;;;;;5051793;28;20388;-64
2022/12/08 06:09:01;;;;;;;2.60;1.65;;;;;;;;;;5043594;28;20073;-64
2022/12/08 06:11:28;;;;;;;3.92;1.50;;;;;;;;;;5031813;28;20037;-64
2022/12/08 06:13:55;;;;;;;4.82;1.63;;;;;;;;;;5051564;28;20036;-64
2022/12/08 06:16:21;;;;;;;2.70;1.60;;;;;;;;;;5051816;28;20076;-64
2022/12/08 06:18:47;;;;;;;3.13;1.60;;;;;;;;;;5051664;28;20100;-64
2022/12/08 06:21:15;;;;;;;3.20;1.60;;;;;;;;;;5036587;28;20499;-64
2022/12/08 06:23:41;;;;;;;2.97;1.40;;;;;;;;;;5033599;28;20083;-64
2022/12/08 06:26:09;;;;;;;5.78;2.00;;;;;;;;;;5051701;28;20124;-64
2022/12/08 06:28:36;;;;;;;3.67;1.60;;;;;;;;;;5051279;28;20480;-64
2022/12/08 06:31:09;;;;;;;2.97;1.42;;;;;;;;;;5051518;28;20040;-63
2022/12/08 06:33:36;;;;;;;3.92;1.77;;;;;;;;;;5049751;28;20044;-65
2022/12/08 06:36:02;;;;;;;6.95;2.03;;;;;;;;;;5045796;28;20044;-64
2022/12/08 06:38:29;;;;;;;3.42;1.98;;;;;;;;;;5036706;28;20068;-65
2022/12/08 06:40:55;;;;;;;4.18;2.05;;;;;;;;;;5045187;28;20034;-64
2022/12/08 06:43:21;;;;;;;3.67;2.20;;;;;;;;;;5043826;28;20060;-64
2022/12/08 06:45:47;;;;;;;3.92;1.98;;;;;;;;;;5035533;28;20064;-65
2022/12/08 06:48:13;;;;;;;5.60;2.17;;;;;;;;;;5050867;28;20441;-65
2022/12/08 06:50:39;;;;;;;5.85;2.20;;;;;;;;;;5050277;28;20123;-64
2022/12/08 06:53:06;;;;;;;7.45;2.15;;;;;;;;;;5050699;28;20125;-63
2022/12/08 06:55:32;;;;;;;5.50;1.95;;;;;;;;;;5051209;28;20041;-63
2022/12/08 06:57:58;;;;;;;3.00;1.67;;;;;;;;;;5049836;28;20080;-63
2022/12/08 07:00:24;;;;;;;4.20;1.55;;;;;;;;;;5044192;28;20451;-64
2022/12/08 07:02:50;;;;;;;5.82;1.70;;;;;;;;;;5030855;28;20048;-64
2022/12/08 07:05:16;;;;;;;2.75;1.45;;;;;;;;;;5037900;28;20063;-63
2022/12/08 07:07:42;;;;;;;3.42;1.30;;;;;;;;;;5035998;28;20372;-63
2022/12/08 07:10:08;;;;;;;5.32;1.40;;;;;;;;;;5044827;28;20041;-63
2022/12/08 07:12:34;;;;;;;3.20;1.27;;;;;;;;;;5041589;28;20049;-63
2022/12/08 07:15:00;;;;;;;2.30;1.08;;;;;;;;;;5030957;28;20065;-63
2022/12/08 07:17:26;;;;;;;2.58;1.00;;;;;;;;;;5030743;28;20057;-63
2022/12/08 07:19:52;;;;;;;4.30;1.25;;;;;;;;;;5046944;28;20597;-63
2022/12/08 07:22:18;;;;;;;3.85;1.75;;;;;;;;;;5050455;28;20091;-64
2022/12/08 07:24:44;;;;;;;1.58;1.10;;;;;;;;;;5050911;28;20049;-63
2022/12/08 07:27:10;;;;;;;6.20;1.40;;;;;;;;;;5050826;28;20036;-64
2022/12/08 07:29:36;;;;;;;3.67;1.20;;;;;;;;;;5050519;28;20049;-64
2022/12/08 07:32:03;;;;;;;2.70;1.05;;;;;;;;;;5050621;28;20052;-65
2022/12/08 07:34:29;;;;;;;6.75;1.20;;;;;;;;;;5034618;28;20045;-65
2022/12/08 07:36:55;;;;;;;4.20;1.25;;;;;;;;;;5048842;28;20065;-64
2022/12/08 07:39:21;;;;;;;6.72;1.80;;;;;;;;;;5046185;28;20092;-63
2022/12/08 07:41:47;;;;;;;3.63;1.30;;;;;;;;;;5024555;28;20041;-64
2022/12/08 07:44:13;;;;;;;3.40;1.55;;;;;;;;;;5040565;28;20128;-65
2022/12/08 07:46:39;;;;;;;5.72;1.40;;;;;;;;;;5041837;28;20079;-64
2022/12/08 07:49:05;;;;;;;4.53;1.30;;;;;;;;;;5044526;28;20060;-63
2022/12/08 07:51:31;;;;;;;1.58;1.08;;;;;;;;;;5051881;28;20442;-62
2022/12/08 07:53:57;;;;;;;3.53;1.25;;;;;;;;;;5045832;28;20079;-64
2022/12/08 07:56:23;;;;;;;3.22;1.30;;;;;;;;;;5051605;28;20053;-63
2022/12/08 07:58:49;;;;;;;4.50;1.48;;;;;;;;;;5046358;28;20075;-63
2022/12/08 08:01:20;;;;;;;3.33;1.60;;;;;;;;;;5052970;28;20087;-64
2022/12/08 08:03:46;;;;;;;5.60;1.30;;;;;;;;;;5041054;28;20845;-62
2022/12/08 08:06:12;;;;;;;5.10;1.52;;;;;;;;;;5050605;28;20037;-63
2022/12/08 08:08:38;;;;;;;3.63;1.60;;;;;;;;;;5047623;28;20045;-64
2022/12/08 08:11:08;;;;;;;3.75;1.80;;;;;;;;;;5044497;28;20038;-63
2022/12/08 08:13:34;;;;;;;3.47;1.38;;;;;;;;;;5044539;28;20048;-64
2022/12/08 08:16:07;;;;;;;5.70;1.30;;;;;;;;;;5047169;28;20037;-64
2022/12/08 08:18:34;;;;;;;5.50;1.40;;;;;;;;;;5040431;28;20144;-63
2022/12/08 08:21:00;;;;;;;2.90;1.25;;;;;;;;;;5031825;28;20057;-63
2022/12/08 08:23:27;;;;;;;5.05;1.30;;;;;;;;;;5033268;28;20091;-62
2022/12/08 08:25:53;;;;;;;2.60;1.30;;;;;;;;;;5047157;28;20044;-65
2022/12/08 08:28:19;;;;;;;3.35;1.30;;;;;;;;;;5050892;28;20045;-66
2022/12/08 08:30:46;;;;;;;3.00;1.42;;;;;;;;;;5052896;28;20656;-64
2022/12/08 08:33:12;;;;;;;1.80;1.27;;;;;;;;;;5041913;28;20439;-63
2022/12/08 08:35:38;;;;;;;4.32;1.23;;;;;;;;;;5037775;28;20387;-64
2022/12/08 08:38:05;;;;;;;4.40;1.40;;;;;;;;;;5051543;28;20049;-63
2022/12/08 08:40:31;;;;;;;4.93;1.55;;;;;;;;;;5049431;28;20045;-63
2022/12/08 08:43:00;;;;;;;5.72;1.27;;;;;;;;;;5045246;28;20090;-64
2022/12/08 08:45:26;;;;;;;3.45;1.20;;;;;;;;;;5039859;28;20101;-63
2022/12/08 08:47:52;;;;;;;3.97;1.20;;;;;;;;;;5032874;28;20484;-62
2022/12/08 08:50:18;;;;;;;5.32;1.42;;;;;;;;;;5031771;28;20045;-63
2022/12/08 08:52:44;;;;;;;4.85;1.25;;;;;;;;;;5031415;28;20236;-63
2022/12/08 08:55:10;;;;;;;1.67;1.10;;;;;;;;;;5032183;28;20045;-62
2022/12/08 08:57:36;;;;;;;5.90;1.23;;;;;;;;;;5038342;28;20043;-63
2022/12/08 09:00:03;;;;;;;4.32;1.10;;;;;;;;;;5031280;28;20041;-63
2022/12/08 09:02:29;;;;;;;5.90;1.35;;;;;;;;;;5035245;28;20472;-63
2022/12/08 09:04:55;;;;;;;3.17;1.10;;;;;;;;;;5040905;28;20083;-64
2022/12/08 09:07:21;;;;;;;3.15;1.23;;;;;;;;;;5031694;28;20042;-64
2022/12/08 09:09:47;;;;;;;3.17;1.10;;;;;;;;;;5035169;28;20045;-63
2022/12/08 09:12:13;;;;;;;1.75;0.93;;;;;;;;;;5029984;28;20051;-63
2022/12/08 09:14:39;;;;;;;3.95;1.30;;;;;;;;;;5031741;28;20052;-62
2022/12/08 09:17:06;;;;;;;3.47;1.02;;;;;;;;;;5039370;28;20758;-62
2022/12/08 09:19:32;;;;;;;3.75;1.00;;;;;;;;;;5039315;28;20037;-62
2022/12/08 09:21:58;;;;;;;4.78;1.02;;;;;;;;;;5047051;28;20112;-62
2022/12/08 09:24:24;;;;;;;3.33;1.10;;;;;;;;;;5046649;28;20682;-62
2022/12/08 09:26:50;;;;;;;3.83;0.88;;;;;;;;;;5048469;28;20084;-64
2022/12/08 09:29:16;;;;;;;2.65;1.15;;;;;;;;;;5050883;28;20088;-64
2022/12/08 09:31:42;;;;;;;3.58;0.90;;;;;;;;;;5048812;28;20114;-66
2022/12/08 09:34:09;;;;;;;2.50;0.82;;;;;;;;;;5044568;28;20029;-69
2022/12/08 09:36:35;;;;;;;4.20;1.13;;;;;;;;;;5046280;28;20116;-67
2022/12/08 09:39:01;;;;;;;3.30;0.90;;;;;;;;;;5041171;28;20088;-69
2022/12/08 09:41:28;;;;;;;3.88;1.20;;;;;;;;;;5032759;28;20029;-67
2022/12/08 09:44:00;;;;;;;5.43;1.40;;;;;;;;;;5040150;28;20442;-68
2022/12/08 09:46:28;;;;;;;4.53;1.35;;;;;;;;;;5033178;28;20091;-68
2022/12/08 09:48:55;;;;;;;2.50;1.10;;;;;;;;;;5037155;28;20041;-68
2022/12/08 09:51:23;;;;;;;3.58;1.75;;;;;;;;;;5037504;28;20492;-68
2022/12/08 09:54:13;;;;;;;2.03;1.67;;;;;;;;;;5051075;28;20079;-68
2022/12/08 09:56:39;;;;;;;3.33;1.50;;;;;;;;;;5045389;28;20045;-68
2022/12/08 09:59:05;;;;;;;4.65;1.55;;;;;;;;;;5046392;28;20045;-68
2022/12/08 10:01:32;;;;;;;7.10;3.03;;;;;;;;;;5050251;28;20037;-68
2022/12/08 10:03:58;;;;;;;6.90;2.50;;;;;;;;;;5049641;28;20037;-69
2022/12/08 10:06:29;;;;;;;5.03;2.38;;;;;;;;;;5050597;28;20391;-68
2022/12/08 10:09:08;;;;;;;7.07;2.50;;;;;;;;;;5043241;28;20041;-68
2022/12/08 10:11:40;;;;;;;5.32;2.65;;;;;;;;;;5045602;28;20071;-67
2022/12/08 10:14:25;;;;;;;6.10;2.55;;;;;;;;;;5048990;28;20076;-66
2022/12/08 10:16:55;;;;;;;4.53;2.60;;;;;;;;;;5036354;28;20033;-66
2022/12/08 10:19:22;;;;;;;4.95;2.70;;;;;;;;;;5041366;28;20044;-67
2022/12/08 10:21:48;;;;;;;7.68;2.80;;;;;;;;;;5049337;28;20506;-66
2022/12/08 10:24:23;;;;;;;5.95;2.72;;;;;;;;;;5043360;28;20064;-67
2022/12/08 10:26:50;;;;;;;5.80;2.80;;;;;;;;;;5040981;28;20091;-67
2022/12/08 10:29:16;;;;;;;8.70;2.92;;;;;;;;;;5036525;28;20383;-67
2022/12/08 10:31:42;;;;;;;6.25;3.47;;;;;;;;;;5039765;28;20500;-68
2022/12/08 10:34:26;;;;;;;5.88;3.58;;;;;;;;;;5045559;28;20045;-67
2022/12/08 10:36:57;;;;;;;6.35;3.35;;;;;;;;;;5035245;28;20132;-67
2022/12/08 10:39:40;;;;;;;8.05;3.50;;;;;;;;;;5044930;28;20041;-68
2022/12/08 10:42:16;;;;;;;7.82;3.28;;;;;;;;;;5044308;28;20064;-68
2022/12/08 10:44:54;;;;;;;8.20;3.63;;;;;;;;;;5040504;28;20192;-67
2022/12/08 10:47:21;;;;;;;7.90;3.10;;;;;;;;;;5045575;28;20392;-68
2022/12/08 10:49:47;;;;;;;6.30;3.65;;;;;;;;;;5049438;28;20079;-68
2022/12/08 10:52:23;;;;;;;9.35;3.40;;;;;;;;;;5034621;28;20045;-68
2022/12/08 10:54:53;;;;;;;7.32;3.88;;;;;;;;;;5045537;28;20369;-68
2022/12/08 10:57:20;;;;;;;8.57;3.97;;;;;;;;;;5039716;28;20033;-68
2022/12/08 10:59:46;;;;;;;6.57;3.85;;;;;;;;;;5047620;28;20037;-69
2022/12/08 11:02:19;;;;;;;5.97;3.75;;;;;;;;;;5039360;28;20084;-69
2022/12/08 11:04:45;;;;;;;5.72;3.25;;;;;;;;;;5033658;28;20126;-70
2022/12/08 11:07:12;;;;;;;5.18;3.28;;;;;;;;;;5045940;28;20044;-68
2022/12/08 11:09:48;;;;;;;7.72;3.60;;;;;;;;;;5042772;28;20041;-69
2022/12/08 11:12:19;;;;;;;8.13;3.13;;;;;;;;;;5049179;28;20041;-69
2022/12/08 11:14:45;;;;;;;7.47;3.35;;;;;;;;;;5044155;28;20060;-68
2022/12/08 11:17:15;;;;;;;6.82;3.25;;;;;;;;;;5045942;28;20980;-69
2022/12/08 11:19:46;;;;;;;5.93;3.08;;;;;;;;;;5046849;28;20048;-68
2022/12/08 11:22:31;;;;;;;6.85;3.05;;;;;;;;;;5050072;28;20045;-68
2022/12/08 11:25:06;;;;;;;6.15;3.10;;;;;;;;;;5048177;28;20079;-67
2022/12/08 11:27:35;;;;;;;7.82;3.42;;;;;;;;;;5054018;28;20052;-67
2022/12/08 11:30:02;;;;;;;4.45;2.88;;;;;;;;;;5051891;28;20041;-67
2022/12/08 11:32:29;;;;;;;6.55;2.60;;;;;;;;;;5049821;28;20033;-68
2022/12/08 11:34:56;;;;;;;5.28;2.33;;;;;;;;;;5056105;28;20484;-67
2022/12/08 11:37:52;;;;;;;4.63;2.28;;;;;;;;;;5052701;28;20037;-69
2022/12/08 11:40:35;;;;;;;5.97;2.40;;;;;;;;;;5044666;28;20098;-69
2022/12/08 11:43:20;;;;;;;6.43;3.85;;;;;;;;;;5045196;28;20114;-69
2022/12/08 11:45:48;;;;;;;4.60;3.15;;;;;;;;;;5042076;28;20052;-68
2022/12/08 11:48:18;;;;;;;6.28;3.50;;;;;;;;;;5041891;28;20037;-69
2022/12/08 11:50:55;;;;;;;5.55;3.03;;;;;;;;;;5050561;28;20080;-68
2022/12/08 11:53:39;;;;;;;9.77;3.40;;;;;;;;;;5049696;28;20038;-68
2022/12/08 11:56:09;;;;;;;5.68;2.88;;;;;;;;;;5044356;28;20053;-68
2022/12/08 11:58:40;;;;;;;6.25;2.67;;;;;;;;;;5052637;28;20036;-68
2022/12/08 12:01:13;;;;;;;6.60;2.58;;;;;;;;;;5050579;28;20391;-68
2022/12/08 12:03:42;;;;;;;6.30;3.08;;;;;;;;;;5051233;28;20044;-68
2022/12/08 12:06:21;;;;;;;6.10;2.67;;;;;;;;;;5049031;28;20044;-68
2022/12/08 12:09:10;;;;;;;5.70;2.63;;;;;;;;;;5047054;28;20075;-69
2022/12/08 12:14:48;;;;;;;6.40;2.58;;;;;;;;;;5055730;28;20049;-68
2022/12/08 12:17:26;;;;;;;6.78;2.25;;;;;;;;;;5047532;28;20049;-67
2022/12/08 12:19:53;;;;;;;3.75;2.00;;;;;;;;;;5050135;28;20091;-67
2022/12/08 12:22:21;;;;;;;6.55;2.60;;;;;;;;;;5050337;28;20047;-69
2022/12/08 12:24:48;;;;;;;3.75;1.95;;;;;;;;;;5050156;28;20064;-68
2022/12/08 12:27:21;;;;;;;7.25;2.70;;;;;;;;;;5047726;28;20052;-68
2022/12/08 12:29:50;;;;;;;6.78;2.60;;;;;;;;;;5052144;28;20585;-68
2022/12/08 12:32:16;;;;;;;5.07;2.60;;;;;;;;;;5046019;28;20033;-67
2022/12/08 12:35:00;;;;;;;8.80;3.20;;;;;;;;;;5051675;28;20052;-68
2022/12/08 12:37:38;;;;;;;6.10;3.03;;;;;;;;;;5052783;28;20818;-68
2022/12/08 12:40:16;;;;;;;5.55;2.75;;;;;;;;;;5050031;28;20033;-67
2022/12/08 12:42:44;;;;;;;7.38;2.47;;;;;;;;;;5053474;28;20037;-67
2022/12/08 12:45:30;;;;;;;5.30;1.60;;;;;;;;;;5050356;28;20040;-69
2022/12/08 12:47:59;;;;;;;4.25;1.45;;;;;;;;;;5042280;28;20124;-69
2022/12/08 12:50:31;;;;;;;6.10;1.58;;;;;;;;;;5044988;28;20616;-68
2022/12/08 12:52:58;;;;;;;3.85;1.40;;;;;;;;;;5034640;28;20041;-68
2022/12/08 12:55:25;;;;;;;2.28;0.80;;;;;;;;;;5035806;28;20080;-68
2022/12/08 12:57:53;;;;;;;3.85;0.80;;;;;;;;;;5047154;28;20041;-68
2022/12/08 13:00:23;;;;;;;2.33;0.50;;;;;;;;;;5042125;28;20379;-69
2022/12/08 13:02:50;;;;;;;2.63;0.50;;;;;;;;;;5048058;28;20045;-69
2022/12/08 13:05:25;;;;;;;6.63;0.63;;;;;;;;;;5050067;28;20075;-69
2022/12/08 13:08:05;;;;;;;6.10;0.73;;;;;;;;;;5050379;28;20543;-68
2022/12/08 13:10:39;;;;;;;4.05;0.80;;;;;;;;;;5045688;28;20063;-67
2022/12/08 13:13:06;;;;;;;1.45;0.45;;;;;;;;;;5056266;28;20037;-68
2022/12/08 13:15:39;;;;;;;6.45;0.90;;;;;;;;;;5049021;28;20491;-67
2022/12/08 13:18:06;;;;;;;2.70;0.63;;;;;;;;;;5050667;28;20085;-67
2022/12/08 13:20:42;;;;;;;7.65;1.00;;;;;;;;;;5046274;28;20033;-66
2022/12/08 13:23:27;;;;;;;7.45;0.98;;;;;;;;;;5049603;28;20044;-65
2022/12/08 13:26:09;;;;;;;3.58;1.13;;;;;;;;;;5050733;28;20045;-65
2022/12/08 13:28:55;;;;;;;3.57;1.10;;;;;;;;;;5051695;28;20124;-64
2022/12/08 13:31:40;;;;;;;2.63;0.90;;;;;;;;;;5051158;28;20688;-64
2022/12/08 13:34:13;;;;;;;5.00;1.00;;;;;;;;;;5049743;28;20499;-64
2022/12/08 13:36:43;;;;;;;4.07;0.93;;;;;;;;;;5052072;28;20037;-64
2022/12/08 13:39:19;;;;;;;4.88;1.10;;;;;;;;;;5050810;28;20040;-64
2022/12/08 13:41:50;;;;;;;5.82;0.93;;;;;;;;;;5049103;28;20403;-65
2022/12/08 13:44:22;;;;;;;4.28;1.00;;;;;;;;;;5041914;28;20092;-65
2022/12/08 13:46:53;;;;;;;5.72;1.20;;;;;;;;;;5038820;28;20041;-66
2022/12/08 13:49:24;;;;;;;2.35;1.00;;;;;;;;;;5039756;28;20388;-64
2022/12/08 13:51:52;;;;;;;6.60;1.63;;;;;;;;;;5033985;28;20521;-64
2022/12/08 13:54:21;;;;;;;5.00;1.10;;;;;;;;;;5034685;28;20468;-69
2022/12/08 13:56:48;;;;;;;5.43;1.60;;;;;;;;;;5049377;28;20052;-68
2022/12/08 13:59:20;;;;;;;4.32;0.93;;;;;;;;;;5048655;28;20041;-69
2022/12/08 14:01:49;;;;;;;8.70;1.33;;;;;;;;;;5050925;28;20033;-66
2022/12/08 14:04:17;;;;;;;6.63;1.02;;;;;;;;;;5033562;28;20037;-68
2022/12/08 14:06:48;;;;;;;3.22;1.02;;;;;;;;;;5046731;28;20041;-68
2022/12/08 14:09:16;;;;;;;2.42;0.95;;;;;;;;;;5041045;28;20033;-66
2022/12/08 14:11:46;;;;;;;2.65;1.25;;;;;;;;;;5046751;28;20037;-67
2022/12/08 14:14:23;;;;;;;4.60;1.17;;;;;;;;;;5049056;28;20048;-64
2022/12/08 14:16:52;;;;;;;4.13;1.30;;;;;;;;;;5040253;28;20505;-65
2022/12/08 14:19:20;;;;;;;2.90;1.33;;;;;;;;;;5046167;28;20044;-68
2022/12/08 14:21:47;;;;;;;4.45;1.40;;;;;;;;;;5028335;28;20043;-69
2022/12/08 14:24:13;;;;;;;4.22;1.85;;;;;;;;;;5042918;28;20044;-67
2022/12/08 14:26:39;;;;;;;2.83;1.45;;;;;;;;;;5030109;28;20094;-70
2022/12/08 14:29:08;;;;;;;5.88;2.05;;;;;;;;;;5034656;28;20032;-67
2022/12/08 14:31:34;;;;;;;6.22;2.50;;;;;;;;;;5045890;28;20145;-65
2022/12/08 14:34:00;;;;;;;7.03;2.28;;;;;;;;;;5043819;28;20124;-64
2022/12/08 14:36:27;;;;;;;4.07;2.47;;;;;;;;;;5039284;28;20044;-63
2022/12/08 14:38:55;;;;;;;6.55;2.20;;;;;;;;;;5047066;28;20092;-64
2022/12/08 14:41:25;;;;;;;7.45;2.20;;;;;;;;;;5045699;28;20460;-64
2022/12/08 14:43:59;;;;;;;3.70;1.83;;;;;;;;;;5046234;28;20128;-64
2022/12/08 14:46:26;;;;;;;5.95;2.53;;;;;;;;;;5046406;28;20032;-64
2022/12/08 14:48:53;;;;;;;3.15;2.25;;;;;;;;;;5042849;28;20364;-65
2022/12/08 14:51:22;;;;;;;6.25;2.40;;;;;;;;;;5039099;28;20048;-64
2022/12/08 14:53:53;;;;;;;4.65;2.47;;;;;;;;;;5046650;28;20043;-65
2022/12/08 14:56:22;;;;;;;6.43;2.20;;;;;;;;;;5048555;28;20124;-63
2022/12/08 14:58:49;;;;;;;6.65;2.50;;;;;;;;;;5051617;28;20537;-64
2022/12/08 15:01:16;;;;;;;8.07;2.60;;;;;;;;;;5044935;28;20076;-63